createdAt,value
2019-05-18T00:00:52.771Z,5.90
2019-05-18T00:03:21.928Z,7.80
2019-05-18T00:05:51.476Z,6.47
2019-05-18T00:08:26.511Z,6.33
2019-05-18T00:10:55.768Z,9.07
2019-05-18T00:13:25.620Z,7.47
2019-05-18T00:15:54.684Z,7.63
2019-05-18T00:18:24.175Z,6.80
2019-05-18T00:20:53.402Z,8.93
2019-05-18T00:23:22.690Z,8.33
2019-05-18T00:25:51.999Z,8.00
2019-05-18T00:28:21.134Z,9.50
2019-05-18T00:30:50.388Z,6.23
2019-05-18T00:33:19.699Z,7.37
2019-05-18T00:35:48.894Z,8.67
2019-05-18T00:38:18.182Z,8.40
2019-05-18T00:40:47.422Z,7.50
2019-05-18T00:43:16.861Z,9.37
2019-05-18T00:45:46.128Z,7.70
2019-05-18T00:48:15.469Z,7.53
2019-05-18T00:50:44.531Z,6.47
2019-05-18T00:53:13.709Z,8.63
2019-05-18T00:55:42.790Z,9.13
2019-05-18T00:58:12.000Z,7.37
2019-05-18T01:00:41.428Z,7.47
2019-05-18T01:03:10.674Z,7.23
2019-05-18T01:05:39.900Z,9.03
2019-05-18T01:08:09.175Z,7.60
2019-05-18T01:10:38.435Z,8.47
2019-05-18T01:13:07.734Z,8.23
2019-05-18T01:15:36.953Z,7.37
2019-05-18T01:18:06.207Z,8.00
2019-05-18T01:20:35.521Z,8.13
2019-05-18T01:23:04.709Z,8.23
2019-05-18T01:25:34.587Z,8.13
2019-05-18T01:28:03.780Z,8.97
2019-05-18T01:30:32.994Z,9.23
2019-05-18T01:33:02.116Z,8.63
2019-05-18T01:35:31.280Z,9.57
2019-05-18T01:38:00.483Z,10.53
2019-05-18T01:40:29.764Z,7.60
2019-05-18T01:42:58.962Z,9.87
2019-05-18T01:45:28.156Z,6.90
2019-05-18T01:48:12.181Z,7.13
2019-05-18T01:50:28.046Z,9.97
2019-05-18T01:52:57.119Z,8.93
2019-05-18T01:55:26.298Z,8.63
2019-05-18T01:57:55.607Z,8.53
2019-05-18T02:00:30.740Z,7.10
2019-05-18T02:02:59.932Z,7.33
2019-05-18T02:05:29.481Z,7.80
2019-05-18T02:07:58.932Z,7.50
2019-05-18T02:10:28.215Z,7.27
2019-05-18T02:12:57.394Z,8.27
2019-05-18T02:15:26.688Z,7.63
2019-05-18T02:17:55.888Z,8.90
2019-05-18T02:20:25.347Z,7.33
2019-05-18T02:22:54.431Z,9.00
2019-05-18T02:25:23.639Z,7.27
2019-05-18T02:27:52.784Z,8.23
2019-05-18T02:30:21.997Z,7.37
2019-05-18T02:32:51.050Z,6.80
2019-05-18T02:35:20.204Z,7.07
2019-05-18T02:37:49.522Z,8.53
2019-05-18T02:40:18.743Z,8.87
2019-05-18T02:42:47.815Z,7.80
2019-05-18T02:45:17.136Z,8.07
2019-05-18T02:47:46.391Z,8.50
2019-05-18T02:50:15.646Z,8.00
2019-05-18T02:52:49.193Z,8.27
2019-05-18T02:55:18.438Z,7.77
2019-05-18T02:57:47.893Z,6.67
2019-05-18T03:00:17.353Z,9.30
2019-05-18T03:02:46.550Z,10.00
2019-05-18T03:05:16.122Z,8.67
2019-05-18T03:07:45.409Z,8.87
2019-05-18T03:10:14.735Z,9.43
2019-05-18T03:12:43.916Z,8.80
2019-05-18T03:15:13.325Z,9.23
2019-05-18T03:17:42.505Z,9.33
2019-05-18T03:20:12.469Z,8.13
2019-05-18T03:22:41.679Z,9.27
2019-05-18T03:25:10.876Z,7.70
2019-05-18T03:27:39.984Z,10.20
2019-05-18T03:30:09.673Z,9.33
2019-05-18T03:32:39.194Z,10.37
2019-05-18T03:35:08.801Z,9.73
2019-05-18T03:37:38.219Z,11.00
2019-05-18T03:40:07.635Z,8.70
2019-05-18T03:42:36.946Z,9.00
2019-05-18T03:45:06.260Z,7.87
2019-05-18T03:47:35.433Z,10.17
2019-05-18T03:50:04.861Z,8.37
2019-05-18T03:52:34.184Z,8.53
2019-05-18T03:55:03.746Z,7.33
2019-05-18T03:57:32.895Z,9.90
2019-05-18T04:00:02.092Z,8.83
2019-05-18T04:02:31.507Z,8.13
2019-05-18T04:05:00.637Z,9.63
2019-05-18T04:07:30.111Z,8.23
2019-05-18T04:09:59.566Z,8.10
2019-05-18T04:12:28.785Z,6.70
2019-05-18T04:14:58.279Z,8.90
2019-05-18T04:17:27.505Z,10.00
2019-05-18T04:19:57.105Z,9.53
2019-05-18T04:22:26.284Z,8.70
2019-05-18T04:24:55.457Z,9.70
2019-05-18T04:27:24.805Z,10.27
2019-05-18T04:29:54.059Z,8.90
2019-05-18T04:32:23.387Z,9.60
2019-05-18T04:34:52.549Z,9.17
2019-05-18T04:37:21.795Z,9.43
2019-05-18T04:39:50.937Z,8.50
2019-05-18T04:42:20.185Z,10.40
2019-05-18T04:44:49.463Z,10.10
2019-05-18T04:47:18.944Z,10.10
2019-05-18T04:50:03.893Z,10.30
2019-05-18T04:52:19.066Z,10.70
2019-05-18T04:54:48.261Z,12.10
2019-05-18T04:57:17.515Z,10.77
2019-05-18T04:59:46.680Z,11.20
2019-05-18T05:02:15.979Z,10.40
2019-05-18T05:04:45.296Z,11.20
2019-05-18T05:07:14.643Z,11.67
2019-05-18T05:09:44.022Z,13.00
2019-05-18T05:12:13.276Z,11.90
2019-05-18T05:14:43.060Z,11.93
2019-05-18T05:17:12.222Z,12.13
2019-05-18T05:19:41.366Z,13.23
2019-05-18T05:22:10.809Z,11.93
2019-05-18T05:24:40.084Z,11.53
2019-05-18T05:27:09.193Z,11.30
2019-05-18T05:29:38.445Z,12.60
2019-05-18T05:32:07.738Z,11.40
2019-05-18T05:34:36.870Z,12.03
2019-05-18T05:37:06.021Z,11.20
2019-05-18T05:39:35.227Z,12.90
2019-05-18T05:42:04.581Z,12.27
2019-05-18T05:44:33.810Z,12.23
2019-05-18T05:47:03.047Z,11.23
2019-05-18T05:49:32.249Z,12.07
2019-05-18T05:52:01.403Z,11.60
2019-05-18T05:54:30.649Z,11.90
2019-05-18T05:56:59.821Z,12.90
2019-05-18T05:59:29.023Z,12.53
2019-05-18T06:01:58.245Z,11.57
2019-05-18T06:04:27.362Z,11.13
2019-05-18T06:06:56.495Z,12.67
2019-05-18T06:09:25.696Z,12.87
2019-05-18T06:11:54.797Z,11.20
2019-05-18T06:14:24.007Z,12.60
2019-05-18T06:16:53.342Z,12.10
2019-05-18T06:19:23.165Z,12.53
2019-05-18T06:21:52.373Z,12.80
2019-05-18T06:24:21.600Z,12.97
2019-05-18T06:26:50.744Z,11.47
2019-05-18T06:29:19.982Z,12.50
2019-05-18T06:31:49.306Z,12.60
2019-05-18T06:34:18.512Z,12.90
2019-05-18T06:36:47.706Z,11.37
2019-05-18T06:39:17.457Z,11.33
2019-05-18T06:41:46.772Z,12.37
2019-05-18T06:44:16.521Z,11.77
2019-05-18T06:46:45.803Z,12.73
2019-05-18T06:49:15.189Z,13.40
2019-05-18T06:51:44.504Z,12.30
2019-05-18T06:54:13.615Z,13.60
2019-05-18T06:56:44.033Z,12.27
2019-05-18T06:59:16.341Z,12.90
2019-05-18T07:01:45.312Z,12.47
2019-05-18T07:04:14.695Z,12.90
2019-05-18T07:06:43.825Z,13.10
2019-05-18T07:09:14.450Z,13.03
2019-05-18T07:11:43.693Z,12.40
2019-05-18T07:14:24.895Z,12.10
2019-05-18T07:16:43.837Z,12.60
2019-05-18T07:19:13.040Z,13.53
2019-05-18T07:21:42.287Z,13.10
2019-05-18T07:24:11.610Z,12.80
2019-05-18T07:26:40.921Z,13.47
2019-05-18T07:29:10.159Z,12.80
2019-05-18T07:31:39.354Z,12.73
2019-05-18T07:34:08.429Z,12.73
2019-05-18T07:36:37.468Z,11.43
2019-05-18T07:39:07.216Z,12.47
2019-05-18T07:41:46.220Z,12.20
2019-05-18T07:44:07.612Z,12.87
2019-05-18T07:46:36.872Z,12.53
2019-05-18T07:49:06.154Z,12.27
2019-05-18T07:51:37.274Z,12.33
2019-05-18T07:54:06.317Z,12.67
2019-05-18T07:56:35.530Z,12.33
2019-05-18T07:59:04.724Z,10.50
2019-05-18T08:01:33.855Z,12.83
2019-05-18T08:04:03.036Z,14.43
2019-05-18T08:06:32.219Z,13.27
2019-05-18T08:09:01.303Z,12.57
2019-05-18T08:11:30.495Z,13.10
2019-05-18T08:13:59.639Z,13.10
2019-05-18T08:16:28.855Z,12.87
2019-05-18T08:18:58.326Z,13.77
2019-05-18T08:21:27.778Z,12.27
2019-05-18T08:23:56.840Z,13.37
2019-05-18T08:26:25.996Z,12.73
2019-05-18T08:28:55.412Z,13.67
2019-05-18T08:31:24.594Z,13.37
2019-05-18T08:33:53.779Z,12.60
2019-05-18T08:36:23.374Z,12.97
2019-05-18T08:38:52.586Z,12.73
2019-05-18T08:41:21.858Z,12.77
2019-05-18T08:43:50.935Z,12.27
2019-05-18T08:46:20.111Z,13.50
2019-05-18T08:48:49.450Z,12.67
2019-05-18T08:51:18.634Z,12.80
2019-05-18T08:53:47.906Z,12.70
2019-05-18T08:56:17.214Z,12.83
2019-05-18T08:58:46.306Z,12.37
2019-05-18T09:01:15.484Z,13.90
2019-05-18T09:03:44.663Z,12.77
2019-05-18T09:06:13.963Z,12.43
2019-05-18T09:08:44.665Z,12.80
2019-05-18T09:11:13.950Z,12.80
2019-05-18T09:13:43.289Z,12.43
2019-05-18T09:16:12.521Z,12.87
2019-05-18T09:18:41.882Z,12.07
2019-05-18T09:21:11.237Z,12.70
2019-05-18T09:23:40.443Z,12.37
2019-05-18T09:26:10.080Z,12.20
2019-05-18T09:28:39.365Z,12.50
2019-05-18T09:31:08.532Z,12.30
2019-05-18T09:33:37.700Z,12.23
2019-05-18T09:36:06.972Z,12.50
2019-05-18T09:38:36.087Z,12.27
2019-05-18T09:41:05.462Z,11.60
2019-05-18T09:43:34.577Z,12.07
2019-05-18T09:46:03.819Z,12.23
2019-05-18T09:48:33.068Z,12.13
2019-05-18T09:51:02.177Z,11.93
2019-05-18T09:53:31.263Z,10.57
2019-05-18T09:56:00.623Z,10.30
2019-05-18T09:58:29.775Z,10.10
2019-05-18T10:00:59.000Z,11.67
2019-05-18T10:03:28.164Z,11.33
2019-05-18T10:05:57.189Z,12.17
2019-05-18T10:08:26.765Z,10.37
2019-05-18T10:10:56.552Z,10.13
2019-05-18T10:13:25.764Z,11.47
2019-05-18T10:15:54.988Z,10.90
2019-05-18T10:18:24.142Z,10.97
2019-05-18T10:20:53.578Z,10.90
2019-05-18T10:23:22.723Z,9.60
2019-05-18T10:25:52.128Z,10.13
2019-05-18T10:28:21.295Z,10.83
2019-05-18T10:30:50.611Z,10.70
2019-05-18T10:33:19.957Z,10.37
2019-05-18T10:35:49.212Z,9.53
2019-05-18T10:38:18.892Z,9.10
2019-05-18T10:40:48.166Z,9.23
2019-05-18T10:43:17.385Z,10.13
2019-05-18T10:45:46.516Z,10.37
2019-05-18T10:48:15.744Z,9.63
2019-05-18T10:50:45.067Z,9.47
2019-05-18T10:53:27.728Z,8.73
2019-05-18T10:55:45.391Z,6.80
2019-05-18T10:58:14.640Z,6.57
2019-05-18T11:00:43.902Z,7.00
2019-05-18T11:03:13.082Z,8.10
2019-05-18T11:05:42.494Z,8.20
2019-05-18T11:08:11.710Z,6.80
2019-05-18T11:10:40.933Z,7.03
2019-05-18T11:13:10.403Z,6.70
2019-05-18T11:15:39.777Z,6.27
2019-05-18T11:18:09.035Z,6.60
2019-05-18T11:20:38.284Z,7.33
2019-05-18T11:23:07.545Z,5.93
2019-05-18T11:25:36.700Z,5.27
2019-05-18T11:28:06.402Z,6.03
2019-05-18T11:30:35.600Z,4.83
2019-05-18T11:33:04.877Z,5.17
2019-05-18T11:35:34.100Z,5.70
2019-05-18T11:38:03.334Z,5.33
2019-05-18T11:40:32.518Z,4.20
2019-05-18T11:43:01.710Z,4.80
2019-05-18T11:45:30.913Z,4.57
2019-05-18T11:48:00.184Z,3.90
2019-05-18T11:50:29.395Z,4.03
2019-05-18T11:52:58.544Z,5.17
2019-05-18T11:55:27.816Z,5.17
2019-05-18T11:57:57.011Z,5.00
2019-05-18T12:00:28.152Z,4.50
2019-05-18T12:02:57.423Z,4.83
2019-05-18T12:05:26.576Z,4.13
2019-05-18T12:07:56.277Z,3.63
2019-05-18T12:10:25.626Z,2.80
2019-05-18T12:12:54.993Z,4.10
2019-05-18T12:15:24.411Z,4.27
2019-05-18T12:17:53.507Z,4.17
2019-05-18T12:20:23.776Z,4.47
2019-05-18T12:22:52.996Z,4.33
2019-05-18T12:25:22.335Z,3.97
2019-05-18T12:27:51.629Z,4.23
2019-05-18T12:30:21.151Z,4.10
2019-05-18T12:32:50.576Z,3.57
2019-05-18T12:35:19.786Z,3.43
2019-05-18T12:37:49.048Z,3.43
2019-05-18T12:40:22.569Z,3.47
2019-05-18T12:42:51.720Z,3.60
2019-05-18T12:45:21.319Z,2.87
2019-05-18T12:47:50.585Z,4.00
2019-05-18T12:50:25.076Z,3.90
2019-05-18T12:52:55.194Z,3.67
2019-05-18T12:55:24.819Z,3.43
2019-05-18T12:57:54.328Z,3.80
2019-05-18T13:00:24.115Z,3.30
2019-05-18T13:02:53.189Z,4.83
2019-05-18T13:05:22.332Z,3.53
2019-05-18T13:07:55.105Z,3.77
2019-05-18T13:10:25.484Z,3.50
2019-05-18T13:12:59.871Z,3.20
2019-05-18T13:15:29.211Z,3.30
2019-05-18T13:17:58.223Z,3.77
2019-05-18T13:20:37.805Z,3.93
2019-05-18T13:23:07.091Z,4.40
2019-05-18T13:25:45.595Z,3.40
2019-05-18T13:28:24.699Z,3.90
2019-05-18T13:30:53.804Z,3.70
2019-05-18T13:33:23.316Z,4.03
2019-05-18T13:35:52.636Z,3.90
2019-05-18T13:38:21.864Z,3.50
2019-05-18T13:40:51.083Z,4.00
2019-05-18T13:43:20.439Z,3.67
2019-05-18T13:45:49.689Z,3.40
2019-05-18T13:48:24.922Z,3.37
2019-05-18T13:50:54.089Z,3.10
2019-05-18T13:53:23.291Z,3.17
2019-05-18T13:55:52.550Z,3.10
2019-05-18T13:58:21.749Z,2.70
2019-05-18T14:00:51.104Z,3.40
2019-05-18T14:03:20.314Z,3.13
2019-05-18T14:05:49.613Z,3.20
2019-05-18T14:08:18.720Z,3.27
2019-05-18T14:10:48.073Z,2.77
2019-05-18T14:13:20.288Z,2.93
2019-05-18T14:15:55.668Z,3.47
2019-05-18T14:18:24.968Z,3.50
2019-05-18T14:20:54.212Z,3.57
2019-05-18T14:23:29.312Z,3.30
2019-05-18T14:25:58.745Z,2.87
2019-05-18T14:28:27.982Z,2.70
2019-05-18T14:30:57.258Z,2.70
2019-05-18T14:33:26.840Z,3.33
2019-05-18T14:35:56.023Z,2.53
2019-05-18T14:38:25.295Z,2.73
2019-05-18T14:40:54.452Z,2.70
2019-05-18T14:43:44.681Z,3.20
2019-05-18T14:46:13.978Z,3.13
2019-05-18T14:48:43.158Z,3.00
2019-05-18T14:51:17.637Z,3.50
2019-05-18T14:53:46.542Z,2.70
2019-05-18T14:56:15.692Z,2.70
2019-05-18T14:58:50.781Z,2.70
2019-05-18T15:01:19.942Z,2.67
2019-05-18T15:03:49.394Z,2.97
2019-05-18T15:06:18.563Z,3.43
2019-05-18T15:08:47.920Z,3.43
2019-05-18T15:11:17.266Z,3.33
2019-05-18T15:13:46.461Z,3.03
2019-05-18T15:16:15.701Z,3.23
2019-05-18T15:18:45.012Z,3.20
2019-05-18T15:21:14.151Z,3.97
2019-05-18T15:23:43.745Z,2.90
2019-05-18T15:26:12.982Z,3.57
2019-05-18T15:28:42.389Z,3.70
2019-05-18T15:31:11.742Z,3.33
2019-05-18T15:33:41.490Z,3.07
2019-05-18T15:36:10.952Z,3.13
2019-05-18T15:38:45.103Z,3.10
2019-05-18T15:41:14.511Z,2.70
2019-05-18T15:43:53.783Z,2.70
2019-05-18T15:46:21.035Z,2.80
2019-05-18T15:48:51.687Z,2.53
2019-05-18T15:51:21.320Z,2.50
2019-05-18T15:53:50.996Z,3.07
2019-05-18T15:56:22.409Z,2.93
2019-05-18T15:58:51.551Z,3.00
2019-05-18T16:01:21.195Z,3.03
2019-05-18T16:03:50.434Z,3.00
2019-05-18T16:06:19.634Z,3.20
2019-05-18T16:08:49.674Z,2.90
2019-05-18T16:11:19.326Z,2.67
2019-05-18T16:13:49.127Z,2.90
2019-05-18T16:16:18.449Z,2.87
2019-05-18T16:18:47.635Z,3.07
2019-05-18T16:21:16.904Z,3.10
2019-05-18T16:23:46.279Z,2.90
2019-05-18T16:26:21.545Z,2.90
2019-05-18T16:28:47.724Z,2.90
2019-05-18T16:31:17.090Z,3.57
2019-05-18T16:33:46.822Z,3.30
2019-05-18T16:36:17.072Z,3.13
2019-05-18T16:38:46.427Z,3.77
2019-05-18T16:41:15.856Z,3.50
2019-05-18T16:43:45.052Z,3.63
2019-05-18T16:46:14.270Z,3.70
2019-05-18T16:48:43.576Z,3.37
2019-05-18T16:51:12.865Z,3.43
2019-05-18T16:53:42.179Z,3.40
2019-05-18T16:56:11.601Z,14.13
2019-05-18T16:58:40.833Z,3.70
2019-05-18T17:01:10.032Z,3.60
2019-05-18T17:03:40.121Z,3.63
2019-05-18T17:06:11.291Z,3.40
2019-05-18T17:08:40.589Z,3.30
2019-05-18T17:11:11.187Z,3.17
2019-05-18T17:13:40.688Z,3.17
2019-05-18T17:16:12.878Z,3.90
2019-05-18T17:18:42.328Z,4.57
2019-05-18T17:21:15.917Z,5.03
2019-05-18T17:23:46.026Z,4.27
2019-05-18T17:26:15.339Z,4.07
2019-05-18T17:28:44.576Z,4.50
2019-05-18T17:31:14.043Z,4.30
2019-05-18T17:33:49.695Z,4.33
2019-05-18T17:36:19.733Z,5.30
2019-05-18T17:38:49.117Z,4.30
2019-05-18T17:41:18.617Z,5.17
2019-05-18T17:43:49.867Z,4.40
2019-05-18T17:46:19.238Z,3.97
2019-05-18T17:48:50.318Z,4.83
2019-05-18T17:51:19.484Z,3.90
2019-05-18T17:53:48.753Z,4.00
2019-05-18T17:56:17.873Z,3.70
2019-05-18T17:58:47.195Z,3.70
2019-05-18T18:01:16.668Z,4.13
2019-05-18T18:03:46.198Z,3.90
2019-05-18T18:06:15.428Z,4.00
2019-05-18T18:08:44.977Z,3.87
2019-05-18T18:11:14.681Z,3.87
2019-05-18T18:13:43.943Z,4.10
2019-05-18T18:16:13.249Z,4.40
2019-05-18T18:18:42.575Z,3.73
2019-05-18T18:21:11.847Z,4.13
2019-05-18T18:23:41.064Z,3.97
2019-05-18T18:26:10.333Z,4.13
2019-05-18T18:28:39.676Z,3.97
2019-05-18T18:31:08.810Z,3.87
2019-05-18T18:33:37.970Z,4.07
2019-05-18T18:36:07.177Z,5.03
2019-05-18T18:38:36.267Z,4.50
2019-05-18T18:41:05.483Z,4.70
2019-05-18T18:43:34.924Z,4.10
2019-05-18T18:46:04.218Z,4.47
2019-05-18T18:48:33.358Z,4.90
2019-05-18T18:51:02.592Z,4.77
2019-05-18T18:53:31.844Z,4.67
2019-05-18T18:56:00.988Z,4.10
2019-05-18T18:58:30.432Z,4.10
2019-05-18T19:00:59.591Z,4.00
2019-05-18T19:03:28.697Z,4.17
2019-05-18T19:05:59.123Z,4.40
2019-05-18T19:08:28.912Z,4.03
2019-05-18T19:10:58.394Z,4.77
2019-05-18T19:13:27.780Z,4.50
2019-05-18T19:15:57.276Z,4.90
2019-05-18T19:18:26.482Z,4.80
2019-05-18T19:20:55.884Z,5.03
2019-05-18T19:23:25.123Z,5.17
2019-05-18T19:25:54.351Z,5.10
2019-05-18T19:28:23.626Z,6.40
2019-05-18T19:30:52.856Z,5.30
2019-05-18T19:33:22.247Z,5.90
2019-05-18T19:35:51.290Z,5.47
2019-05-18T19:38:20.518Z,5.73
2019-05-18T19:40:49.922Z,5.63
2019-05-18T19:43:19.142Z,5.77
2019-05-18T19:45:48.468Z,5.73
2019-05-18T19:48:17.759Z,4.87
2019-05-18T19:50:46.893Z,5.67
2019-05-18T19:53:16.238Z,5.73
2019-05-18T19:55:45.516Z,10.53
2019-05-18T19:58:15.105Z,7.70
2019-05-18T20:00:44.527Z,6.93
2019-05-18T20:03:13.827Z,7.77
2019-05-18T20:05:43.149Z,7.37
2019-05-18T20:08:12.915Z,7.37
2019-05-18T20:10:51.038Z,8.60
2019-05-18T20:13:20.941Z,8.83
2019-05-18T20:15:50.442Z,7.87
2019-05-18T20:18:19.719Z,7.90
2019-05-18T20:20:49.000Z,7.57
2019-05-18T20:23:18.418Z,6.67
2019-05-18T20:25:47.998Z,8.67
2019-05-18T20:28:23.753Z,6.97
2019-05-18T20:30:48.689Z,7.30
2019-05-18T20:33:18.604Z,7.63
2019-05-18T20:35:48.050Z,7.80
2019-05-18T20:38:17.747Z,8.03
2019-05-18T20:40:47.198Z,8.57
2019-05-18T20:43:18.657Z,9.07
2019-05-18T20:45:48.108Z,9.57
2019-05-18T20:48:17.537Z,10.00
2019-05-18T20:50:46.968Z,9.90
2019-05-18T20:53:16.559Z,10.13
2019-05-18T20:55:46.028Z,8.50
2019-05-18T20:58:15.559Z,8.37
2019-05-18T21:00:45.064Z,8.57
2019-05-18T21:03:16.021Z,8.63
2019-05-18T21:05:45.421Z,8.73
2019-05-18T21:08:14.834Z,9.97
2019-05-18T21:10:44.788Z,11.10
2019-05-18T21:13:14.363Z,11.83
2019-05-18T21:15:43.868Z,10.33
2019-05-18T21:18:13.267Z,10.93
2019-05-18T21:20:42.732Z,9.77
2019-05-18T21:23:12.356Z,13.67
2019-05-18T21:25:42.030Z,9.67
2019-05-18T21:28:11.389Z,10.40
2019-05-18T21:30:40.684Z,13.43
2019-05-18T21:33:10.204Z,12.37
2019-05-18T21:35:41.198Z,12.73
2019-05-18T21:38:11.143Z,10.10
2019-05-18T21:40:41.079Z,10.77
2019-05-18T21:43:13.565Z,14.87
2019-05-18T21:46:02.058Z,12.33
2019-05-18T21:48:31.454Z,12.33
2019-05-18T21:51:02.133Z,11.00
2019-05-18T21:53:35.950Z,13.50
2019-05-18T21:56:03.030Z,14.93
2019-05-18T21:58:32.433Z,10.53
2019-05-18T22:01:01.853Z,14.37
2019-05-18T22:03:31.690Z,10.80
2019-05-18T22:06:01.240Z,11.03
2019-05-18T22:08:30.847Z,11.03
2019-05-18T22:11:02.356Z,13.73
2019-05-18T22:13:32.076Z,13.70
2019-05-18T22:16:01.725Z,12.50
2019-05-18T22:18:31.257Z,11.33
2019-05-18T22:21:00.926Z,11.10
2019-05-18T22:23:31.804Z,13.60
2019-05-18T22:26:01.337Z,11.73
2019-05-18T22:28:32.419Z,10.50
2019-05-18T22:31:01.832Z,13.40
2019-05-18T22:33:32.227Z,13.43
2019-05-18T22:36:01.522Z,11.40
2019-05-18T22:38:31.227Z,11.47
2019-05-18T22:41:00.810Z,11.27
2019-05-18T22:43:31.475Z,12.10
2019-05-18T22:46:03.510Z,13.70
2019-05-18T22:48:41.490Z,11.17
2019-05-18T22:51:05.790Z,14.10
2019-05-18T22:53:42.977Z,11.20
2019-05-18T22:56:12.644Z,10.87
2019-05-18T22:58:46.921Z,9.43
2019-05-18T23:01:17.735Z,9.17
2019-05-18T23:03:47.386Z,12.50
2019-05-18T23:06:16.832Z,9.10
2019-05-18T23:08:46.313Z,9.90
2019-05-18T23:11:15.788Z,10.07
2019-05-18T23:13:45.644Z,9.43
2019-05-18T23:16:15.011Z,9.53
2019-05-18T23:18:56.400Z,10.00
2019-05-18T23:21:15.445Z,9.10
2019-05-18T23:23:44.806Z,9.53
2019-05-18T23:26:14.555Z,10.73
2019-05-18T23:28:44.631Z,11.37
2019-05-18T23:31:14.013Z,10.63
2019-05-18T23:33:43.371Z,8.60
2019-05-18T23:36:12.982Z,8.73
2019-05-18T23:38:43.823Z,11.03
2019-05-18T23:41:13.676Z,10.10
2019-05-18T23:43:43.462Z,9.13
2019-05-18T23:46:12.933Z,8.87
2019-05-18T23:48:42.448Z,11.60
2019-05-18T23:51:11.632Z,9.17
2019-05-18T23:53:41.224Z,9.67
2019-05-18T23:56:29.616Z,10.67
2019-05-18T23:58:58.890Z,8.90
